createdAt,value
2017-07-21T00:00:00.769Z,0
2017-07-21T00:01:00.449Z,0
2017-07-21T00:02:00.438Z,0
2017-07-21T00:03:00.438Z,0
2017-07-21T00:04:00.742Z,0
2017-07-21T00:05:00.426Z,0
2017-07-21T00:06:00.093Z,0
2017-07-21T00:07:00.085Z,0
2017-07-21T00:08:00.382Z,0
2017-07-21T00:09:00.376Z,0
2017-07-21T00:10:00.672Z,0
2017-07-21T00:11:00.665Z,0
2017-07-21T00:12:00.674Z,0
2017-07-21T00:13:00.650Z,0
2017-07-21T00:14:00.009Z,0
2017-07-21T00:15:00.628Z,0
2017-07-21T00:16:00.359Z,0
2017-07-21T00:17:00.299Z,0
2017-07-21T00:17:59.981Z,0
2017-07-21T00:19:00.587Z,0
2017-07-21T00:20:00.269Z,0
2017-07-21T00:20:59.635Z,0
2017-07-21T00:21:59.944Z,0
2017-07-21T00:23:00.553Z,0
2017-07-21T00:24:00.555Z,0
2017-07-21T00:24:59.911Z,0
2017-07-21T00:26:00.530Z,0
2017-07-21T00:27:00.218Z,0
2017-07-21T00:28:00.204Z,0
2017-07-21T00:29:00.194Z,0
2017-07-21T00:30:00.492Z,0
2017-07-21T00:31:00.166Z,0
2017-07-21T00:32:00.473Z,0
2017-07-21T00:33:00.147Z,0
2017-07-21T00:34:00.142Z,0
2017-07-21T00:35:00.432Z,0
2017-07-21T00:35:59.808Z,0
2017-07-21T00:37:00.107Z,0
2017-07-21T00:38:00.099Z,0
2017-07-21T00:38:59.783Z,0
2017-07-21T00:40:00.394Z,0
2017-07-21T00:41:00.390Z,0
2017-07-21T00:42:00.060Z,0
2017-07-21T00:42:59.740Z,0
2017-07-21T00:44:00.364Z,0
2017-07-21T00:44:59.714Z,0
2017-07-21T00:46:00.070Z,0
2017-07-21T00:47:00.321Z,0
2017-07-21T00:48:00.313Z,0
2017-07-21T00:49:00.315Z,0
2017-07-21T00:49:59.668Z,0
2017-07-21T00:51:00.291Z,0
2017-07-21T00:51:59.644Z,0
2017-07-21T00:52:59.323Z,0
2017-07-21T00:54:00.255Z,0
2017-07-21T00:54:59.971Z,0
2017-07-21T00:55:59.607Z,0
2017-07-21T00:57:00.216Z,0
2017-07-21T00:57:59.903Z,0
2017-07-21T00:59:00.206Z,0
2017-07-21T00:59:59.878Z,0
2017-07-21T01:01:00.186Z,0
2017-07-21T01:01:59.546Z,0
2017-07-21T01:02:59.847Z,0
2017-07-21T01:03:59.843Z,0
2017-07-21T01:04:59.203Z,0
2017-07-21T01:06:00.026Z,0
2017-07-21T01:06:59.499Z,0
2017-07-21T01:07:59.527Z,0
2017-07-21T01:09:00.105Z,0
2017-07-21T01:09:59.782Z,0
2017-07-21T01:10:59.768Z,0
2017-07-21T01:12:00.071Z,0
2017-07-21T01:12:59.742Z,0
2017-07-21T01:13:59.740Z,0
2017-07-21T01:14:59.409Z,0
2017-07-21T01:15:59.411Z,0
2017-07-21T01:16:59.708Z,0
2017-07-21T01:17:59.698Z,0
2017-07-21T01:18:59.379Z,0
2017-07-21T01:19:59.367Z,0
2017-07-21T01:20:59.666Z,0
2017-07-21T01:21:59.345Z,0
2017-07-21T01:22:59.333Z,0
2017-07-21T01:23:59.322Z,0
2017-07-21T01:24:58.998Z,0
2017-07-21T01:25:59.930Z,0
2017-07-21T01:26:58.976Z,0
2017-07-21T01:27:59.604Z,0
2017-07-21T01:28:59.270Z,0
2017-07-21T01:29:58.948Z,0
2017-07-21T01:30:59.564Z,0
2017-07-21T01:31:59.861Z,0
2017-07-21T01:32:59.233Z,0
2017-07-21T01:33:59.843Z,0
2017-07-21T01:34:59.535Z,0
2017-07-21T01:35:59.817Z,0
2017-07-21T01:36:59.813Z,0
2017-07-21T01:37:59.489Z,0
2017-07-21T01:38:59.484Z,0
2017-07-21T01:39:59.466Z,0
2017-07-21T01:40:59.778Z,0
2017-07-21T01:41:59.456Z,0
2017-07-21T01:42:59.439Z,0
2017-07-21T01:43:59.738Z,0
2017-07-21T01:44:59.423Z,0
2017-07-21T01:45:59.411Z,0
2017-07-21T01:46:59.137Z,0
2017-07-21T01:47:59.391Z,0
2017-07-21T01:48:59.059Z,0
2017-07-21T01:49:59.061Z,0
2017-07-21T01:50:59.361Z,0
2017-07-21T01:51:59.350Z,0
2017-07-21T01:52:59.337Z,0
2017-07-21T01:53:59.640Z,0
2017-07-21T01:54:59.629Z,0
2017-07-21T01:55:59.026Z,0
2017-07-21T01:56:58.674Z,0
2017-07-21T01:57:59.288Z,0
2017-07-21T01:58:59.288Z,0
2017-07-21T01:59:58.946Z,0
2017-07-21T02:00:59.261Z,0
2017-07-21T02:01:59.269Z,0
2017-07-21T02:02:59.236Z,0
2017-07-21T02:03:59.333Z,0
2017-07-21T02:04:58.900Z,0
2017-07-21T02:05:58.914Z,0
2017-07-21T02:06:58.878Z,0
2017-07-21T02:07:59.491Z,0
2017-07-21T02:08:58.543Z,0
2017-07-21T02:09:59.470Z,0
2017-07-21T02:10:59.148Z,0
2017-07-21T02:11:59.137Z,0
2017-07-21T02:12:59.125Z,0
2017-07-21T02:13:59.112Z,0
2017-07-21T02:14:59.415Z,0
2017-07-21T02:15:59.118Z,0
2017-07-21T02:16:59.137Z,0
2017-07-21T02:17:59.388Z,0
2017-07-21T02:18:58.753Z,0
2017-07-21T02:19:58.736Z,0
2017-07-21T02:20:58.725Z,0
2017-07-21T02:21:59.031Z,0
2017-07-21T02:22:59.020Z,0
2017-07-21T02:23:58.692Z,0
2017-07-21T02:24:58.999Z,0
2017-07-21T02:25:58.669Z,0
2017-07-21T02:26:59.286Z,0
2017-07-21T02:27:58.958Z,0
2017-07-21T02:28:58.953Z,0
2017-07-21T02:29:58.314Z,0
2017-07-21T02:30:59.251Z,0
2017-07-21T02:31:58.919Z,0
2017-07-21T02:32:58.911Z,0
2017-07-21T02:33:59.215Z,0
2017-07-21T02:34:58.884Z,0
2017-07-21T02:35:58.888Z,0
2017-07-21T02:36:58.237Z,0
2017-07-21T02:37:58.856Z,0
2017-07-21T02:38:58.215Z,0
2017-07-21T02:39:59.141Z,0
2017-07-21T02:40:58.822Z,0
2017-07-21T02:41:59.121Z,0
2017-07-21T02:42:58.797Z,0
2017-07-21T02:43:58.784Z,0
2017-07-21T02:44:58.780Z,0
2017-07-21T02:45:58.466Z,0
2017-07-21T02:46:59.063Z,0
2017-07-21T02:47:59.057Z,0
2017-07-21T02:48:58.728Z,0
2017-07-21T02:49:58.098Z,0
2017-07-21T02:50:59.018Z,0
2017-07-21T02:51:58.384Z,0
2017-07-21T02:52:58.687Z,0
2017-07-21T02:53:58.673Z,0
2017-07-21T02:54:58.665Z,0
2017-07-21T02:55:58.968Z,0
2017-07-21T02:56:58.639Z,0
2017-07-21T02:57:58.628Z,0
2017-07-21T02:58:58.616Z,0
2017-07-21T02:59:58.600Z,0
2017-07-21T03:00:58.278Z,0
2017-07-21T03:01:58.271Z,4
2017-07-21T03:02:58.620Z,4
2017-07-21T03:03:58.273Z,0
2017-07-21T03:04:58.548Z,0
2017-07-21T03:05:59.057Z,4
2017-07-21T03:06:58.849Z,4
2017-07-21T03:07:58.211Z,4
2017-07-21T03:08:58.817Z,4
2017-07-21T03:09:58.493Z,8
2017-07-21T03:10:58.486Z,8
2017-07-21T03:11:58.465Z,4
2017-07-21T03:12:58.144Z,8
2017-07-21T03:13:58.136Z,8
2017-07-21T03:14:58.430Z,8
2017-07-21T03:15:58.433Z,12
2017-07-21T03:16:58.411Z,12
2017-07-21T03:17:58.117Z,16
2017-07-21T03:18:58.078Z,20
2017-07-21T03:19:58.373Z,20
2017-07-21T03:20:57.745Z,24
2017-07-21T03:21:58.353Z,28
2017-07-21T03:22:58.343Z,28
2017-07-21T03:23:58.023Z,32
2017-07-21T03:24:58.029Z,40
2017-07-21T03:25:58.620Z,44
2017-07-21T03:26:58.292Z,48
2017-07-21T03:27:58.286Z,56
2017-07-21T03:28:57.961Z,64
2017-07-21T03:29:58.566Z,68
2017-07-21T03:30:58.257Z,72
2017-07-21T03:31:58.236Z,84
2017-07-21T03:32:57.919Z,88
2017-07-21T03:33:58.240Z,96
2017-07-21T03:34:58.195Z,108
2017-07-21T03:35:57.571Z,120
2017-07-21T03:36:58.184Z,132
2017-07-21T03:37:58.163Z,140
2017-07-21T03:38:58.155Z,152
2017-07-21T03:39:58.136Z,168
2017-07-21T03:40:58.131Z,180
2017-07-21T03:41:58.432Z,192
2017-07-21T03:42:58.454Z,208
2017-07-21T03:43:58.402Z,224
2017-07-21T03:44:58.095Z,236
2017-07-21T03:45:58.077Z,256
2017-07-21T03:46:57.750Z,268
2017-07-21T03:47:58.087Z,288
2017-07-21T03:48:58.351Z,304
2017-07-21T03:49:58.373Z,324
2017-07-21T03:50:58.357Z,340
2017-07-21T03:51:57.997Z,360
2017-07-21T03:52:58.306Z,380
2017-07-21T03:53:58.296Z,396
2017-07-21T03:54:57.968Z,416
2017-07-21T03:55:57.643Z,436
2017-07-21T03:56:58.253Z,452
2017-07-21T03:57:57.928Z,468
2017-07-21T03:58:58.227Z,484
2017-07-21T03:59:57.590Z,500
2017-07-21T04:00:57.892Z,516
2017-07-21T04:01:57.881Z,532
2017-07-21T04:02:57.562Z,548
2017-07-21T04:03:57.544Z,560
2017-07-21T04:04:58.153Z,576
2017-07-21T04:05:58.149Z,592
2017-07-21T04:06:57.817Z,564
2017-07-21T04:07:57.505Z,628
2017-07-21T04:08:57.169Z,640
2017-07-21T04:09:58.099Z,660
2017-07-21T04:10:58.091Z,676
2017-07-21T04:11:58.068Z,696
2017-07-21T04:12:57.428Z,712
2017-07-21T04:13:58.044Z,728
2017-07-21T04:14:57.413Z,748
2017-07-21T04:15:57.716Z,768
2017-07-21T04:16:57.382Z,784
2017-07-21T04:17:57.374Z,796
2017-07-21T04:18:57.362Z,812
2017-07-21T04:19:57.367Z,828
2017-07-21T04:20:57.335Z,840
2017-07-21T04:21:57.015Z,852
2017-07-21T04:22:57.976Z,872
2017-07-21T04:23:57.940Z,896
2017-07-21T04:24:57.951Z,916
2017-07-21T04:25:57.594Z,940
2017-07-21T04:26:57.582Z,960
2017-07-21T04:27:57.577Z,976
2017-07-21T04:28:57.564Z,988
2017-07-21T04:29:57.538Z,1000
2017-07-21T04:30:56.908Z,1012
2017-07-21T04:31:57.522Z,1024
2017-07-21T04:32:57.197Z,1044
2017-07-21T04:33:57.189Z,1064
2017-07-21T04:34:57.480Z,1084
2017-07-21T04:35:57.162Z,1100
2017-07-21T04:36:57.461Z,1112
2017-07-21T04:37:57.762Z,1124
2017-07-21T04:38:57.440Z,1140
2017-07-21T04:39:57.740Z,1152
2017-07-21T04:40:57.107Z,1172
2017-07-21T04:41:57.396Z,1188
2017-07-21T04:42:57.397Z,1212
2017-07-21T04:43:57.377Z,1224
2017-07-21T04:44:57.105Z,1240
2017-07-21T04:45:57.354Z,1256
2017-07-21T04:46:57.028Z,1272
2017-07-21T04:47:57.025Z,1284
2017-07-21T04:48:57.008Z,1292
2017-07-21T04:49:57.307Z,1300
2017-07-21T04:50:57.297Z,1308
2017-07-21T04:51:57.596Z,1312
2017-07-21T04:52:57.278Z,1328
2017-07-21T04:53:57.260Z,1344
2017-07-21T04:54:57.559Z,1364
2017-07-21T04:55:57.542Z,1380
2017-07-21T04:56:56.920Z,1392
2017-07-21T04:57:57.536Z,1408
2017-07-21T04:58:56.880Z,1420
2017-07-21T04:59:56.881Z,1432
2017-07-21T05:00:57.184Z,1440
2017-07-21T05:01:57.162Z,1444
2017-07-21T05:02:56.841Z,1448
2017-07-21T05:03:57.453Z,1452
2017-07-21T05:04:57.471Z,1468
2017-07-21T05:05:57.006Z,1472
2017-07-21T05:06:57.110Z,1488
2017-07-21T05:07:57.102Z,1496
2017-07-21T05:08:57.082Z,1500
2017-07-21T05:09:57.067Z,1504
2017-07-21T05:10:57.375Z,1508
2017-07-21T05:11:56.740Z,1516
2017-07-21T05:12:57.035Z,1524
2017-07-21T05:13:56.393Z,1520
2017-07-21T05:14:57.007Z,1524
2017-07-21T05:15:56.689Z,1532
2017-07-21T05:16:56.673Z,1548
2017-07-21T05:17:56.986Z,1560
2017-07-21T05:18:56.961Z,1576
2017-07-21T05:19:56.654Z,1584
2017-07-21T05:20:56.941Z,1600
2017-07-21T05:21:56.922Z,1608
2017-07-21T05:22:56.606Z,1620
2017-07-21T05:23:56.904Z,1628
2017-07-21T05:24:56.582Z,1644
2017-07-21T05:25:56.880Z,1656
2017-07-21T05:26:56.553Z,1668
2017-07-21T05:27:56.854Z,1684
2017-07-21T05:28:56.849Z,1696
2017-07-21T05:29:56.835Z,1712
2017-07-21T05:30:56.508Z,1724
2017-07-21T05:31:57.124Z,1740
2017-07-21T05:32:56.806Z,1748
2017-07-21T05:33:57.098Z,1756
2017-07-21T05:34:56.481Z,1764
2017-07-21T05:35:56.772Z,1772
2017-07-21T05:36:56.762Z,1772
2017-07-21T05:37:57.057Z,1764
2017-07-21T05:38:57.034Z,1740
2017-07-21T05:39:56.716Z,1728
2017-07-21T05:40:56.446Z,1740
2017-07-21T05:41:56.072Z,1732
2017-07-21T05:42:56.993Z,1732
2017-07-21T05:43:56.682Z,1736
2017-07-21T05:44:56.347Z,1744
2017-07-21T05:45:56.656Z,1760
2017-07-21T05:46:56.681Z,1768
2017-07-21T05:47:56.631Z,1780
2017-07-21T05:48:56.614Z,1784
2017-07-21T05:49:56.293Z,1792
2017-07-21T05:50:56.906Z,1792
2017-07-21T05:51:56.587Z,1792
2017-07-21T05:52:56.264Z,1792
2017-07-21T05:53:56.557Z,1796
2017-07-21T05:54:56.857Z,1804
2017-07-21T05:55:56.595Z,1808
2017-07-21T05:56:56.526Z,1816
2017-07-21T05:57:56.202Z,1820
2017-07-21T05:58:56.821Z,1828
2017-07-21T05:59:56.492Z,1832
2017-07-21T06:00:55.861Z,1836
2017-07-21T06:01:56.472Z,1840
2017-07-21T06:02:56.455Z,1848
2017-07-21T06:03:56.128Z,1856
2017-07-21T06:04:56.753Z,1860
2017-07-21T06:05:56.422Z,1864
2017-07-21T06:06:56.722Z,1868
2017-07-21T06:07:55.837Z,1880
2017-07-21T06:08:56.393Z,1888
2017-07-21T06:09:56.066Z,1892
2017-07-21T06:10:56.068Z,1900
2017-07-21T06:11:56.356Z,1912
2017-07-21T06:12:56.345Z,1920
2017-07-21T06:13:56.023Z,1924
2017-07-21T06:14:56.009Z,1936
2017-07-21T06:15:55.997Z,1928
2017-07-21T06:16:56.293Z,1956
2017-07-21T06:17:56.603Z,1964
2017-07-21T06:18:56.289Z,1972
2017-07-21T06:19:56.266Z,1980
2017-07-21T06:20:56.249Z,1992
2017-07-21T06:21:55.659Z,2004
2017-07-21T06:22:56.232Z,2012
2017-07-21T06:23:55.596Z,2016
2017-07-21T06:24:56.217Z,2024
2017-07-21T06:25:55.888Z,2036
2017-07-21T06:26:56.503Z,2040
2017-07-21T06:27:56.178Z,2048
2017-07-21T06:28:56.510Z,2052
2017-07-21T06:29:56.468Z,2064
2017-07-21T06:30:55.839Z,2072
2017-07-21T06:31:55.825Z,2084
2017-07-21T06:32:56.119Z,2096
2017-07-21T06:33:56.117Z,2104
2017-07-21T06:34:56.096Z,2116
2017-07-21T06:35:55.772Z,2124
2017-07-21T06:36:55.799Z,2128
2017-07-21T06:37:56.070Z,2116
2017-07-21T06:38:55.738Z,2140
2017-07-21T06:39:55.453Z,2140
2017-07-21T06:40:56.033Z,2144
2017-07-21T06:41:56.338Z,2136
2017-07-21T06:42:55.385Z,2136
2017-07-21T06:43:56.037Z,2136
2017-07-21T06:44:56.301Z,2128
2017-07-21T06:45:55.981Z,2124
2017-07-21T06:46:55.346Z,2124
2017-07-21T06:47:55.973Z,2132
2017-07-21T06:48:55.945Z,2144
2017-07-21T06:49:55.932Z,2140
2017-07-21T06:50:55.299Z,2136
2017-07-21T06:51:55.913Z,2144
2017-07-21T06:52:55.904Z,2152
2017-07-21T06:53:55.896Z,2160
2017-07-21T06:54:55.938Z,2168
2017-07-21T06:55:55.888Z,2180
2017-07-21T06:56:55.863Z,2192
2017-07-21T06:57:55.852Z,2200
2017-07-21T06:58:55.842Z,2224
2017-07-21T06:59:55.531Z,2240
2017-07-21T07:00:56.136Z,2252
2017-07-21T07:01:55.810Z,2272
2017-07-21T07:02:56.107Z,2308
2017-07-21T07:03:55.788Z,2328
2017-07-21T07:04:55.468Z,2348
2017-07-21T07:05:56.283Z,2356
2017-07-21T07:06:55.453Z,2360
2017-07-21T07:07:55.747Z,2372
2017-07-21T07:08:55.426Z,2392
2017-07-21T07:09:55.726Z,2408
2017-07-21T07:10:55.397Z,2428
2017-07-21T07:11:56.017Z,2440
2017-07-21T07:12:55.687Z,2452
2017-07-21T07:13:55.681Z,2456
2017-07-21T07:14:55.670Z,2476
2017-07-21T07:15:55.348Z,2492
2017-07-21T07:16:55.345Z,2504
2017-07-21T07:17:55.649Z,2508
2017-07-21T07:18:55.936Z,2532
2017-07-21T07:19:55.621Z,2560
2017-07-21T07:20:55.615Z,2584
2017-07-21T07:21:55.918Z,2588
2017-07-21T07:22:55.592Z,2628
2017-07-21T07:23:55.601Z,2664
2017-07-21T07:24:55.888Z,2688
2017-07-21T07:25:55.566Z,2712
2017-07-21T07:26:55.578Z,2760
2017-07-21T07:27:55.879Z,2772
2017-07-21T07:28:55.215Z,2804
2017-07-21T07:29:55.523Z,2868
2017-07-21T07:30:55.506Z,2916
2017-07-21T07:31:55.820Z,2952
2017-07-21T07:32:55.486Z,3016
2017-07-21T07:33:55.180Z,3100
2017-07-21T07:34:55.809Z,8548
2017-07-21T07:35:55.145Z,31648
2017-07-21T07:36:55.766Z,43328
2017-07-21T07:37:55.132Z,41728
2017-07-21T07:38:55.116Z,38752
2017-07-21T07:39:55.104Z,37664
2017-07-21T07:40:55.098Z,40480
2017-07-21T07:41:55.406Z,44000
2017-07-21T07:42:55.089Z,45120
2017-07-21T07:43:55.702Z,45696
2017-07-21T07:44:55.396Z,46240
2017-07-21T07:45:54.754Z,44800
2017-07-21T07:46:55.691Z,41120
2017-07-21T07:47:55.685Z,38688
2017-07-21T07:48:54.740Z,40096
2017-07-21T07:49:55.359Z,45856
2017-07-21T07:50:55.048Z,48192
2017-07-21T07:51:55.668Z,48128
2017-07-21T07:52:55.353Z,47968
2017-07-21T07:53:55.337Z,46944
2017-07-21T07:54:55.026Z,45216
2017-07-21T07:55:55.330Z,43520
2017-07-21T07:56:55.640Z,44544
2017-07-21T07:57:55.018Z,48192
2017-07-21T07:58:55.009Z,50112
2017-07-21T07:59:55.332Z,48864
2017-07-21T08:00:55.326Z,46560
2017-07-21T08:01:54.679Z,45824
2017-07-21T08:02:55.308Z,46624
2017-07-21T08:03:55.623Z,45600
2017-07-21T08:04:55.000Z,44800
2017-07-21T08:05:55.300Z,43744
2017-07-21T08:06:54.986Z,45344
2017-07-21T08:07:55.043Z,44768
2017-07-21T08:08:55.612Z,42080
2017-07-21T08:09:54.980Z,39232
2017-07-21T08:10:55.305Z,40768
2017-07-21T08:11:55.290Z,45696
2017-07-21T08:12:55.606Z,49280
2017-07-21T08:13:54.977Z,51488
2017-07-21T08:14:55.290Z,51904
2017-07-21T08:15:55.293Z,51296
2017-07-21T08:16:55.292Z,47904
2017-07-21T08:17:55.292Z,44576
2017-07-21T08:18:54.970Z,42784
2017-07-21T08:19:54.971Z,43776
2017-07-21T08:20:55.605Z,47904
2017-07-21T08:21:54.966Z,52192
2017-07-21T08:22:54.658Z,50112
2017-07-21T08:23:54.975Z,43360
2017-07-21T08:24:55.609Z,42816
2017-07-21T08:25:54.967Z,44448
2017-07-21T08:26:54.966Z,46336
2017-07-21T08:27:55.316Z,53344
2017-07-21T08:28:55.290Z,60608
2017-07-21T08:29:55.282Z,68064
2017-07-21T08:30:55.285Z,69536
2017-07-21T08:31:54.994Z,63968
2017-07-21T08:32:55.295Z,56672
2017-07-21T08:33:55.282Z,51776
2017-07-21T08:34:55.618Z,51232
2017-07-21T08:35:55.285Z,53344
2017-07-21T08:36:55.281Z,57024
2017-07-21T08:37:55.283Z,59840
2017-07-21T08:38:55.593Z,61440
2017-07-21T08:39:55.281Z,59424
2017-07-21T08:40:55.299Z,56224
2017-07-21T08:41:54.668Z,53696
2017-07-21T08:42:55.281Z,54912
2017-07-21T08:43:54.975Z,58912
2017-07-21T08:44:54.984Z,63392
2017-07-21T08:45:55.600Z,66592
2017-07-21T08:46:55.280Z,63200
2017-07-21T08:47:55.294Z,61696
2017-07-21T08:48:54.691Z,49440
2017-07-21T08:49:55.297Z,41088
2017-07-21T08:50:55.297Z,24672
2017-07-21T08:51:54.982Z,23648
2017-07-21T08:52:54.980Z,14876
2017-07-21T08:53:54.980Z,18528
2017-07-21T08:54:54.987Z,17504
2017-07-21T08:55:55.288Z,16576
2017-07-21T08:56:54.991Z,20640
2017-07-21T08:57:55.611Z,26816
2017-07-21T08:58:54.666Z,21920
2017-07-21T08:59:54.980Z,19968
2017-07-21T09:00:55.289Z,14268
2017-07-21T09:01:54.979Z,13096
2017-07-21T09:02:54.981Z,9456
2017-07-21T09:03:54.971Z,7924
2017-07-21T09:04:55.290Z,5588
2017-07-21T09:05:55.167Z,5124
2017-07-21T09:06:54.961Z,4708
2017-07-21T09:07:55.270Z,5184
2017-07-21T09:08:55.272Z,5092
2017-07-21T09:09:54.957Z,4876
2017-07-21T09:10:55.267Z,4424
2017-07-21T09:11:54.633Z,7440
2017-07-21T09:12:54.947Z,6968
2017-07-21T09:13:54.941Z,12136
2017-07-21T09:14:55.249Z,14140
2017-07-21T09:15:54.622Z,9696
2017-07-21T09:16:54.926Z,10824
2017-07-21T09:17:54.927Z,10596
2017-07-21T09:18:55.231Z,10164
2017-07-21T09:19:55.235Z,8284
2017-07-21T09:20:55.539Z,6092
2017-07-21T09:21:54.904Z,10264
2017-07-21T09:22:54.900Z,7612
2017-07-21T09:23:55.211Z,8928
2017-07-21T09:24:54.588Z,13488
2017-07-21T09:25:54.575Z,8452
2017-07-21T09:26:54.886Z,23136
2017-07-21T09:27:55.196Z,34336
2017-07-21T09:28:55.507Z,19328
2017-07-21T09:29:55.505Z,14792
2017-07-21T09:30:55.175Z,14740
2017-07-21T09:31:55.483Z,20444
2017-07-21T09:32:55.166Z,9356
2017-07-21T09:33:55.482Z,22880
2017-07-21T09:34:55.158Z,17024
2017-07-21T09:35:54.836Z,6632
2017-07-21T09:36:55.145Z,6924
2017-07-21T09:37:55.144Z,28864
2017-07-21T09:38:55.449Z,24480
2017-07-21T09:39:55.132Z,12468
2017-07-21T09:40:55.127Z,7296
2017-07-21T09:41:54.810Z,5696
2017-07-21T09:42:55.113Z,5916
2017-07-21T09:43:55.109Z,5932
2017-07-21T09:44:55.417Z,5232
2017-07-21T09:45:55.421Z,5264
2017-07-21T09:46:54.466Z,5232
2017-07-21T09:47:55.130Z,5208
2017-07-21T09:48:55.088Z,5212
2017-07-21T09:49:55.078Z,5796
2017-07-21T09:50:54.450Z,5552
2017-07-21T09:51:55.384Z,5192
2017-07-21T09:52:55.363Z,5220
2017-07-21T09:53:54.788Z,5192
2017-07-21T09:54:54.422Z,5128
2017-07-21T09:55:55.353Z,5076
2017-07-21T09:56:54.723Z,5208
2017-07-21T09:57:54.724Z,5376
2017-07-21T09:58:55.346Z,5336
2017-07-21T09:59:55.014Z,5448
2017-07-21T10:00:55.016Z,5356
2017-07-21T10:01:55.014Z,5612
2017-07-21T10:02:54.405Z,5844
2017-07-21T10:03:55.355Z,5592
2017-07-21T10:04:54.681Z,5428
2017-07-21T10:05:54.355Z,5884
2017-07-21T10:06:54.347Z,5664
2017-07-21T10:07:55.168Z,5636
2017-07-21T10:08:54.958Z,5768
2017-07-21T10:09:54.961Z,5716
2017-07-21T10:10:55.269Z,5828
2017-07-21T10:11:54.634Z,6052
2017-07-21T10:12:54.628Z,6452
2017-07-21T10:13:54.931Z,6228
2017-07-21T10:14:54.623Z,6548
2017-07-21T10:15:55.227Z,7556
2017-07-21T10:16:54.610Z,38080
2017-07-21T10:17:55.226Z,55296
2017-07-21T10:18:54.898Z,67328
2017-07-21T10:19:55.212Z,63648
2017-07-21T10:20:54.583Z,25728
2017-07-21T10:21:54.573Z,17120
2017-07-21T10:22:55.198Z,19488
2017-07-21T10:23:55.196Z,28960
2017-07-21T10:24:54.898Z,20544
2017-07-21T10:25:54.869Z,22432
2017-07-21T10:26:54.552Z,37152
2017-07-21T10:27:54.553Z,48672
2017-07-21T10:28:54.861Z,59872
2017-07-21T10:29:54.860Z,67168
2017-07-21T10:30:54.849Z,72544
2017-07-21T10:31:54.849Z,88480
2017-07-21T10:32:55.165Z,89024
2017-07-21T10:33:55.153Z,89536
2017-07-21T10:34:54.836Z,89504
2017-07-21T10:35:54.532Z,88160
2017-07-21T10:36:54.839Z,88672
2017-07-21T10:37:54.521Z,88064
2017-07-21T10:38:54.835Z,87424
2017-07-21T10:39:55.148Z,87456
2017-07-21T10:40:54.872Z,90496
2017-07-21T10:41:54.836Z,92192
2017-07-21T10:42:54.839Z,94656
2017-07-21T10:43:54.840Z,98752
2017-07-21T10:44:54.531Z,101472
2017-07-21T10:45:54.219Z,103456
2017-07-21T10:46:55.159Z,102400
2017-07-21T10:47:54.867Z,99648
2017-07-21T10:48:55.156Z,93152
2017-07-21T10:49:54.544Z,85728
2017-07-21T10:50:55.166Z,79008
2017-07-21T10:51:54.858Z,76384
2017-07-21T10:52:54.858Z,77376
2017-07-21T10:53:55.173Z,82720
2017-07-21T10:54:54.571Z,89856
2017-07-21T10:55:54.867Z,97216
2017-07-21T10:56:55.184Z,103776
2017-07-21T10:57:54.876Z,106976
2017-07-21T10:58:54.570Z,107264
2017-07-21T10:59:54.876Z,102496
2017-07-21T11:00:54.565Z,95776
2017-07-21T11:01:55.203Z,87520
2017-07-21T11:02:55.202Z,84768
2017-07-21T11:03:54.891Z,14320
2017-07-21T11:04:54.596Z,82080
2017-07-21T11:05:54.475Z,80480
2017-07-21T11:06:54.589Z,83776
2017-07-21T11:07:55.243Z,86720
2017-07-21T11:08:54.599Z,85920
2017-07-21T11:09:54.649Z,85760
2017-07-21T11:10:54.920Z,87072
2017-07-21T11:11:54.601Z,87264
2017-07-21T11:12:55.235Z,84032
2017-07-21T11:13:54.929Z,84960
2017-07-21T11:14:54.931Z,87968
2017-07-21T11:15:54.623Z,91680
2017-07-21T11:16:54.941Z,85408
2017-07-21T11:17:54.627Z,95840
2017-07-21T11:18:54.953Z,98336
2017-07-21T11:19:55.260Z,98912
2017-07-21T11:20:54.648Z,99072
2017-07-21T11:21:54.646Z,100608
2017-07-21T11:22:55.270Z,103648
2017-07-21T11:23:54.656Z,104288
2017-07-21T11:24:54.971Z,104544
2017-07-21T11:25:55.287Z,102336
2017-07-21T11:26:54.976Z,99072
2017-07-21T11:27:55.346Z,96064
2017-07-21T11:28:54.995Z,92960
2017-07-21T11:29:54.984Z,90368
2017-07-21T11:30:54.687Z,88544
2017-07-21T11:31:55.109Z,88768
2017-07-21T11:32:55.319Z,86784
2017-07-21T11:33:54.389Z,87264
2017-07-21T11:34:54.695Z,90272
2017-07-21T11:35:54.753Z,92704
2017-07-21T11:36:55.019Z,94752
2017-07-21T11:37:54.745Z,96640
2017-07-21T11:38:55.026Z,97184
2017-07-21T11:39:55.027Z,93280
2017-07-21T11:40:55.352Z,90144
2017-07-21T11:41:54.740Z,86144
2017-07-21T11:42:54.730Z,82144
2017-07-21T11:43:55.044Z,78944
2017-07-21T11:44:55.366Z,77952
2017-07-21T11:45:54.744Z,81056
2017-07-21T11:46:55.068Z,79680
2017-07-21T11:47:55.064Z,77504
2017-07-21T11:48:55.384Z,77600
2017-07-21T11:49:55.383Z,79040
2017-07-21T11:50:55.383Z,79264
2017-07-21T11:51:55.079Z,78272
2017-07-21T11:52:54.774Z,80160
2017-07-21T11:53:55.088Z,84032
2017-07-21T11:54:55.098Z,86176
2017-07-21T11:55:55.152Z,87936
2017-07-21T11:56:54.795Z,92448
2017-07-21T11:57:54.812Z,96960
2017-07-21T11:58:55.118Z,102048
2017-07-21T11:59:55.119Z,103072
2017-07-21T12:00:54.548Z,96960
2017-07-21T12:01:55.123Z,90080
2017-07-21T12:02:54.816Z,82368
2017-07-21T12:03:55.133Z,73888
2017-07-21T12:04:55.459Z,68256
2017-07-21T12:05:55.155Z,69120
2017-07-21T12:06:55.460Z,73824
2017-07-21T12:07:54.842Z,79520
2017-07-21T12:08:55.155Z,87808
2017-07-21T12:09:54.860Z,93440
2017-07-21T12:10:54.862Z,96384
2017-07-21T12:11:55.202Z,95872
2017-07-21T12:12:55.396Z,91936
2017-07-21T12:13:55.186Z,87584
2017-07-21T12:14:55.188Z,84448
2017-07-21T12:15:55.196Z,79168
2017-07-21T12:16:54.886Z,76704
2017-07-21T12:17:55.513Z,75744
2017-07-21T12:18:54.578Z,76512
2017-07-21T12:19:54.904Z,79040
2017-07-21T12:20:54.966Z,82304
2017-07-21T12:21:54.907Z,86432
2017-07-21T12:22:55.220Z,86176
2017-07-21T12:23:55.541Z,86688
2017-07-21T12:24:54.927Z,86400
2017-07-21T12:25:54.935Z,86912
2017-07-21T12:26:54.932Z,87232
2017-07-21T12:27:55.258Z,88448
2017-07-21T12:28:54.950Z,90208
2017-07-21T12:29:55.263Z,94112
2017-07-21T12:30:54.955Z,98752
2017-07-21T12:31:54.965Z,96992
2017-07-21T12:32:55.598Z,94208
2017-07-21T12:33:55.601Z,90368
2017-07-21T12:34:54.973Z,84352
2017-07-21T12:35:55.302Z,80064
2017-07-21T12:36:55.304Z,73600
2017-07-21T12:37:55.302Z,61568
2017-07-21T12:38:55.313Z,77824
2017-07-21T12:39:55.323Z,80704
2017-07-21T12:40:55.004Z,82048
2017-07-21T12:41:55.322Z,87488
2017-07-21T12:42:55.016Z,96288
2017-07-21T12:43:55.023Z,100416
2017-07-21T12:44:55.335Z,99424
2017-07-21T12:45:55.420Z,95168
2017-07-21T12:46:55.039Z,92928
2017-07-21T12:47:55.365Z,90176
2017-07-21T12:48:55.366Z,83456
2017-07-21T12:49:55.060Z,77120
2017-07-21T12:50:55.063Z,75584
2017-07-21T12:51:55.373Z,82720
2017-07-21T12:52:54.752Z,86272
2017-07-21T12:53:55.072Z,87680
2017-07-21T12:54:55.386Z,89344
2017-07-21T12:55:55.392Z,92672
2017-07-21T12:56:54.774Z,94912
2017-07-21T12:57:55.413Z,93312
2017-07-21T12:58:55.722Z,91936
2017-07-21T12:59:55.408Z,90944
2017-07-21T13:00:55.423Z,88320
2017-07-21T13:01:55.429Z,85504
2017-07-21T13:02:55.746Z,85056
2017-07-21T13:03:55.435Z,86656
2017-07-21T13:04:55.756Z,86528
2017-07-21T13:06:10.613Z,86464
2017-07-21T13:06:55.757Z,86336
2017-07-21T13:07:55.786Z,85472
2017-07-21T13:08:55.154Z,83520
2017-07-21T13:09:55.771Z,83776
2017-07-21T13:10:55.467Z,85440
2017-07-21T13:11:55.530Z,87488
2017-07-21T13:12:55.172Z,90304
2017-07-21T13:13:55.506Z,94976
2017-07-21T13:14:55.183Z,98368
2017-07-21T13:15:55.191Z,99712
2017-07-21T13:16:55.188Z,98368
2017-07-21T13:17:55.870Z,97088
2017-07-21T13:18:55.504Z,95424
2017-07-21T13:19:55.201Z,93824
2017-07-21T13:20:55.844Z,91776
2017-07-21T13:21:56.002Z,89216
2017-07-21T13:22:55.846Z,87136
2017-07-21T13:23:55.533Z,86400
2017-07-21T13:24:55.562Z,86976
2017-07-21T13:25:55.540Z,87520
2017-07-21T13:26:54.922Z,86592
2017-07-21T13:27:55.607Z,84736
2017-07-21T13:28:55.865Z,80288
2017-07-21T13:29:55.563Z,78144